Time;durP1;ratioP1;P1;durP2;ratioP2;P2;SDS_P1;SDS_P2;PMS_P1;PMS_P2;Temp;Humidity;BMP_temperature;BMP_pressure;BME280_temperature;BME280_humidity;BME280_pressure;Samples;Min_cycle;Max_cycle;Signal;HPM_P1;HPM_P2
2022/05/26 00:01:53;;;;;;;4.87;4.33;;;;;;;10.56;100.00;101011.09;1737706;82;21101;-93
2022/05/26 00:04:20;;;;;;;5.03;4.15;;;;;;;10.67;100.00;101012.10;1737622;82;21464;-94
2022/05/26 00:06:47;;;;;;;6.78;4.28;;;;;;;10.77;100.00;101014.92;1737597;82;21053;-94
2022/05/26 00:09:16;;;;;;;5.50;3.92;;;;;;;10.77;100.00;101014.92;1737484;82;21120;-92
2022/05/26 00:11:43;;;;;;;7.12;4.37;;;;;;;10.73;100.00;101015.12;1737415;82;21128;-94
2022/05/26 00:14:11;;;;;;;8.50;4.87;;;;;;;10.73;100.00;101013.81;1737481;82;21228;-93
2022/05/26 00:16:45;;;;;;;6.65;4.33;;;;;;;10.76;100.00;101011.95;1737284;82;21037;-91
2022/05/26 00:19:15;;;;;;;5.42;4.90;;;;;;;10.71;100.00;101010.48;1737793;82;21488;-96
2022/05/26 00:21:42;;;;;;;7.62;4.47;;;;;;;10.66;100.00;101009.98;1737465;82;21128;-95
2022/05/26 00:24:10;;;;;;;5.17;4.30;;;;;;;10.55;100.00;101008.57;1738504;82;21089;-93
2022/05/26 00:26:38;;;;;;;4.90;3.87;;;;;;;10.49;100.00;101006.39;1738572;82;21095;-96
2022/05/26 00:29:05;;;;;;;8.88;4.30;;;;;;;10.46;100.00;101006.59;1738939;82;20989;-90
2022/05/26 00:31:32;;;;;;;6.78;4.72;;;;;;;10.52;100.00;101003.59;1738250;82;21076;-96
2022/05/26 00:34:00;;;;;;;6.72;4.90;;;;;;;10.57;100.00;101000.19;1738406;82;21487;-94
2022/05/26 00:36:44;;;;;;;5.15;4.65;;;;;;;10.58;100.00;100995.35;1709082;82;21503;-96
2022/05/26 00:39:19;;;;;;;9.05;4.65;;;;;;;10.57;100.00;100992.38;1737416;82;21296;-96
2022/05/26 00:41:54;;;;;;;10.08;4.90;;;;;;;10.56;100.00;100993.31;1734862;82;21463;-95
2022/05/26 00:44:23;;;;;;;7.20;4.83;;;;;;;10.54;100.00;100993.88;1732361;82;21025;-94
2022/05/26 00:47:01;;;;;;;5.65;4.97;;;;;;;10.54;100.00;100989.52;1737753;82;21530;-92
2022/05/26 00:49:46;;;;;;;6.08;5.20;;;;;;;10.56;100.00;100997.22;1727584;82;22046;-95
2022/05/26 00:52:31;;;;;;;5.15;4.65;;;;;;;10.57;100.00;100994.53;1734200;82;21189;-94
2022/05/26 00:55:03;;;;;;;7.35;4.60;;;;;;;10.62;100.00;100995.97;1730193;82;21092;-96
2022/05/26 00:57:41;;;;;;;12.37;4.65;;;;;;;10.73;100.00;100996.07;1738473;82;21006;-96
2022/05/26 01:00:15;;;;;;;5.30;4.60;;;;;;;10.85;100.00;100995.20;1736748;82;21593;-95
2022/05/26 01:02:47;;;;;;;4.45;4.03;;;;;;;10.97;100.00;100986.98;1737647;82;21069;-93
2022/05/26 01:05:26;;;;;;;6.00;4.72;;;;;;;11.04;100.00;100992.12;1741647;82;21021;-94
2022/05/26 01:07:57;;;;;;;4.92;4.42;;;;;;;11.11;100.00;100992.52;1736217;82;20994;-96
2022/05/26 01:10:24;;;;;;;5.25;4.75;;;;;;;11.16;100.00;100985.69;1741426;82;21005;-94
2022/05/26 01:12:51;;;;;;;8.70;4.72;;;;;;;11.17;100.00;100989.95;1741299;82;21511;-95
2022/05/26 01:15:23;;;;;;;6.15;4.25;;;;;;;11.23;100.00;100992.56;1741463;82;21021;-96
2022/05/26 01:18:02;;;;;;;;;;;;;;;11.25;100.00;100990.23;1743988;82;21270;-93
2022/05/26 01:20:47;;;;;;;7.05;3.75;;;;;;;11.34;100.00;100986.94;1737275;82;20144;-95
2022/05/26 01:23:34;;;;;;;4.53;4.00;;;;;;;11.41;100.00;100987.83;1739944;82;21537;-92
2022/05/26 01:26:49;;;;;;;7.67;3.65;;;;;;;11.43;100.00;100991.12;1741401;82;21069;-93
2022/05/26 01:30:01;;;;;;;4.45;3.75;;;;;;;11.45;100.00;100985.34;1741630;82;21052;-92
2022/05/26 01:32:58;;;;;;;6.35;3.92;;;;;;;11.47;100.00;100990.80;1741292;82;21294;-94
2022/05/26 01:35:42;;;;;;;4.87;4.10;;;;;;;11.52;100.00;100982.64;1739224;82;21017;-93
2022/05/26 01:38:24;;;;;;;5.80;4.40;;;;;;;11.55;100.00;100978.97;1741607;82;21324;-93
2022/05/26 01:41:00;;;;;;;;;;;;;;;11.55;100.00;100982.42;1742923;82;21038;-95
2022/05/26 01:43:48;;;;;;;7.22;4.60;;;;;;;11.51;100.00;100978.36;1740748;82;20140;-94
2022/05/26 01:46:42;;;;;;;5.60;4.47;;;;;;;11.44;100.00;100978.45;1687293;82;21968;-92
2022/05/26 01:49:24;;;;;;;7.42;5.20;;;;;;;11.39;100.00;100977.97;1741160;82;21128;-96
2022/05/26 01:52:14;;;;;;;7.60;4.85;;;;;;;11.35;100.00;100975.57;1739552;82;21072;-93
2022/05/26 01:55:18;;;;;;;5.22;4.17;;;;;;;11.31;100.00;100971.54;1737577;82;21005;-94
2022/05/26 01:57:59;;;;;;;5.65;4.47;;;;;;;11.28;100.00;100970.45;1737413;82;21041;-94
2022/05/26 02:00:26;;;;;;;7.50;4.33;;;;;;;11.26;100.00;100967.11;1734688;82;21156;-93
2022/05/26 02:03:07;;;;;;;6.85;4.40;;;;;;;11.25;100.00;100970.69;1737297;82;21025;-92
2022/05/26 02:05:55;;;;;;;7.35;3.98;;;;;;;11.22;100.00;100966.98;1705712;82;21076;-92
2022/05/26 02:11:14;;;;;;;8.40;4.28;;;;;;;11.22;100.00;100963.08;1840729;78;22511;-91
2022/05/26 02:14:02;;;;;;;4.35;3.95;;;;;;;11.18;100.00;100968.13;1812882;78;21009;-95
2022/05/26 02:16:47;;;;;;;6.60;4.37;;;;;;;11.16;100.00;100970.05;1799824;79;21408;-94
2022/05/26 02:19:47;;;;;;;4.90;3.65;;;;;;;11.16;100.00;100981.77;1816540;78;20954;-96
2022/05/26 02:22:21;;;;;;;4.83;3.87;;;;;;;11.16;100.00;100986.98;1815106;78;21028;-95
2022/05/26 02:25:16;;;;;;;5.33;3.70;;;;;;;11.17;100.00;100984.74;1808331;78;20982;-90
2022/05/26 02:27:45;;;;;;;5.85;4.22;;;;;;;11.16;100.00;100983.08;1780035;80;20962;-92
2022/05/26 02:30:13;;;;;;;6.87;3.92;;;;;;;11.18;100.00;100991.14;1779788;80;21187;-88
2022/05/26 02:32:48;;;;;;;4.45;3.75;;;;;;;11.22;100.00;100993.54;1780182;80;21025;-92
2022/05/26 02:35:30;;;;;;;5.30;3.65;;;;;;;11.21;100.00;100992.69;1776430;80;21492;-93
2022/05/26 02:38:05;;;;;;;4.50;4.10;;;;;;;11.23;100.00;100999.09;1748128;81;21095;-91
2022/05/26 02:40:33;;;;;;;4.83;3.42;;;;;;;11.24;100.00;100996.84;1766276;80;21018;-93
2022/05/26 02:43:06;;;;;;;7.42;3.60;;;;;;;11.28;100.00;100996.52;1749374;81;21145;-96
2022/05/26 02:45:51;;;;;;;4.00;3.60;;;;;;;11.33;100.00;100997.48;1745251;80;21550;-94
2022/05/26 02:48:51;;;;;;;4.37;3.83;;;;;;;11.36;100.00;100998.09;1774239;80;21607;-94
2022/05/26 02:51:26;;;;;;;5.62;3.83;;;;;;;11.43;100.00;100996.34;1779661;80;22166;-95
2022/05/26 02:54:20;;;;;;;6.78;4.35;;;;;;;11.48;100.00;100996.86;1762576;80;21017;-92
2022/05/26 02:57:24;;;;;;;5.42;3.60;;;;;;;11.52;100.00;100995.22;1779893;80;21269;-92
2022/05/26 03:00:16;;;;;;;4.47;3.40;;;;;;;11.60;100.00;100997.25;1724697;80;21062;-93
2022/05/26 03:02:57;;;;;;;5.05;3.75;;;;;;;11.70;100.00;100996.58;1779808;80;21543;-94
2022/05/26 03:05:50;;;;;;;4.75;3.75;;;;;;;11.78;100.00;100991.14;1779695;80;21547;-90
2022/05/26 03:08:21;;;;;;;4.92;3.80;;;;;;;11.87;100.00;100991.40;1775505;80;21065;-90
2022/05/26 03:10:52;;;;;;;5.28;4.47;;;;;;;11.97;100.00;100987.20;1771111;80;21248;-92
2022/05/26 03:13:20;;;;;;;5.47;4.37;;;;;;;12.06;100.00;100986.51;1768955;81;21037;-90
2022/05/26 03:15:48;;;;;;;8.93;5.08;;;;;;;12.13;100.00;100988.19;1769029;80;21082;-92
2022/05/26 03:18:15;;;;;;;5.53;3.77;;;;;;;12.19;100.00;100983.80;1769115;81;21587;-92
2022/05/26 03:20:42;;;;;;;5.28;4.05;;;;;;;12.27;100.00;100972.75;1768801;80;21006;-90
2022/05/26 03:23:09;;;;;;;4.53;3.90;;;;;;;12.35;100.00;100981.32;1768425;80;21763;-93
2022/05/26 03:25:37;;;;;;;5.10;3.70;;;;;;;12.45;100.00;100987.50;1768392;81;21603;-91
2022/05/26 03:28:05;;;;;;;4.42;3.55;;;;;;;12.52;100.00;100980.85;1768484;81;21109;-91
2022/05/26 03:30:32;;;;;;;6.05;3.33;;;;;;;12.61;100.00;100980.60;1768682;80;21137;-92
2022/05/26 03:33:00;;;;;;;4.55;3.67;;;;;;;12.70;100.00;100981.69;1768429;81;21177;-90
2022/05/26 03:40:58;;;;;;;4.45;3.42;;;;;;;13.02;100.00;100977.00;1768550;80;21074;-89
2022/05/26 03:43:37;;;;;;;5.22;4.05;;;;;;;13.15;100.00;100968.97;1768262;81;21069;-93
2022/05/26 03:46:05;;;;;;;4.60;3.50;;;;;;;13.27;100.00;100977.16;1765216;80;21642;-89
2022/05/26 03:48:33;;;;;;;4.58;3.70;;;;;;;13.40;100.00;100975.72;1768483;80;21147;-90
2022/05/26 03:51:00;;;;;;;5.83;3.70;;;;;;;13.54;100.00;100974.59;1768363;80;21089;-95
2022/05/26 03:53:28;;;;;;;4.85;3.52;;;;;;;13.64;100.00;100975.97;1768459;80;21026;-92
2022/05/26 03:55:55;;;;;;;5.08;3.58;;;;;;;13.74;100.00;100970.30;1768446;81;21077;-94
2022/05/26 03:58:23;;;;;;;4.15;3.70;;;;;;;13.80;100.00;100975.05;1768610;80;21055;-93
2022/05/26 04:00:50;;;;;;;4.78;3.65;;;;;;;13.86;100.00;100975.02;1768516;80;21234;-93
2022/05/26 04:03:17;;;;;;;5.85;3.37;;;;;;;13.90;100.00;100976.91;1768364;81;21050;-93
2022/05/26 04:05:45;;;;;;;5.05;3.80;;;;;;;13.91;100.00;100974.61;1768661;81;20978;-91
2022/05/26 04:08:12;;;;;;;4.53;3.80;;;;;;;13.92;100.00;100966.65;1768147;80;21034;-95
2022/05/26 04:10:40;;;;;;;4.83;3.47;;;;;;;13.95;100.00;100965.06;1772484;80;21022;-94
2022/05/26 04:13:09;;;;;;;5.42;3.70;;;;;;;14.03;100.00;100965.74;1776547;78;21187;-93
2022/05/26 04:15:36;;;;;;;6.30;3.70;;;;;;;14.13;100.00;100960.55;1817861;78;21021;-92
2022/05/26 04:18:05;;;;;;;4.45;3.70;;;;;;;14.26;100.00;100956.41;1827172;78;21014;-92
2022/05/26 04:20:32;;;;;;;5.28;3.92;;;;;;;14.38;100.00;100954.03;1827315;78;21010;-91
2022/05/26 04:23:02;;;;;;;5.03;4.17;;;;;;;14.52;100.00;100954.16;1827130;78;21041;-92
2022/05/26 04:25:29;;;;;;;6.05;3.83;;;;;;;14.67;100.00;100951.55;1826840;78;21222;-95
2022/05/26 04:27:57;;;;;;;5.62;3.90;;;;;;;14.83;100.00;100950.20;1826886;78;21049;-94
2022/05/26 04:30:24;;;;;;;8.90;4.00;;;;;;;14.99;100.00;100946.57;1827139;78;21539;-93
2022/05/26 04:32:52;;;;;;;6.60;3.92;;;;;;;15.17;100.00;100942.47;1826952;78;21104;-93
2022/05/26 04:35:21;;;;;;;6.87;3.98;;;;;;;15.35;100.00;100943.41;1827456;78;21048;-93
2022/05/26 04:37:48;;;;;;;5.65;3.87;;;;;;;15.52;100.00;100946.30;1827600;78;21190;-96
2022/05/26 04:40:16;;;;;;;5.08;3.67;;;;;;;15.68;100.00;100950.50;1827488;78;21021;-94
2022/05/26 04:42:43;;;;;;;5.20;3.80;;;;;;;15.82;100.00;100945.30;1827577;78;21060;-92
2022/05/26 04:45:14;;;;;;;6.55;3.70;;;;;;;15.97;100.00;100944.88;1826999;78;21061;-94
2022/05/26 04:47:43;;;;;;;4.00;3.60;;;;;;;16.11;100.00;100953.59;1827325;78;20994;-96
2022/05/26 04:50:12;;;;;;;3.85;3.50;;;;;;;16.23;100.00;100940.64;1827566;78;21095;-94
2022/05/26 04:52:42;;;;;;;5.25;3.67;;;;;;;16.33;100.00;100943.22;1826743;77;21464;-92
2022/05/26 04:55:10;;;;;;;5.42;3.77;;;;;;;16.42;100.00;100944.16;1827334;78;21032;-93
2022/05/26 04:57:38;;;;;;;4.15;3.75;;;;;;;16.52;100.00;100945.42;1827271;78;21068;-95
2022/05/26 05:00:10;;;;;;;20.85;4.95;;;;;;;16.62;100.00;100944.05;1827843;78;21708;-91
2022/05/26 05:02:39;;;;;;;5.15;4.03;;;;;;;16.75;100.00;100943.70;1823270;78;21150;-93
2022/05/26 05:05:07;;;;;;;4.50;3.60;;;;;;;16.86;100.00;100936.93;1827420;78;21028;-92
2022/05/26 05:07:35;;;;;;;6.28;3.80;;;;;;;16.94;100.00;100942.30;1824382;78;21039;-94
2022/05/26 05:10:03;;;;;;;3.83;3.25;;;;;;;17.02;100.00;100934.97;1801242;78;21043;-93
2022/05/26 05:12:33;;;;;;;4.50;3.40;;;;;;;17.10;100.00;100936.36;1813555;78;21041;-92
2022/05/26 05:15:06;;;;;;;4.28;3.83;;;;;;;17.20;100.00;100932.33;1827190;78;21163;-93
2022/05/26 05:17:34;;;;;;;7.83;3.42;;;;;;;17.30;100.00;100927.81;1823602;78;21481;-92
2022/05/26 05:20:01;;;;;;;10.35;4.03;;;;;;;17.41;100.00;100929.88;1827144;77;21146;-93
2022/05/26 05:22:33;;;;;;;4.03;3.20;;;;;;;17.48;100.00;100918.57;1827630;77;21063;-94
2022/05/26 05:25:21;;;;;;;5.72;3.47;;;;;;;17.59;100.00;100924.58;1823839;77;21218;-91
2022/05/26 05:28:02;;;;;;;4.28;3.50;;;;;;;17.70;100.00;100924.81;1824977;77;21589;-93
2022/05/26 05:31:08;;;;;;;4.00;3.27;;;;;;;17.81;100.00;100917.47;1787867;78;21073;-92
2022/05/26 05:33:44;;;;;;;5.50;3.22;;;;;;;17.91;100.00;100923.94;1786461;80;21618;-93
2022/05/26 05:36:17;;;;;;;4.20;3.35;;;;;;;18.03;98.98;100922.40;1752736;81;21539;-92
2022/05/26 05:38:44;;;;;;;4.42;3.17;;;;;;;18.15;100.00;100920.31;1783502;80;20999;-94
2022/05/26 05:41:12;;;;;;;3.50;3.20;;;;;;;18.30;100.00;100914.78;1787805;80;21144;-94
2022/05/26 05:43:40;;;;;;;10.10;3.10;;;;;;;18.47;99.77;100919.61;1755616;81;21066;-90
2022/05/26 05:46:11;;;;;;;6.83;3.12;;;;;;;18.65;98.06;100918.67;1751528;80;21073;-94
2022/05/26 05:48:39;;;;;;;3.77;2.87;;;;;;;18.81;92.77;100914.75;1785192;79;21527;-94
2022/05/26 05:51:06;;;;;;;5.45;3.08;;;;;;;18.99;94.08;100915.14;1787710;80;21089;-93
2022/05/26 05:53:35;;;;;;;5.35;2.90;;;;;;;19.15;92.23;100920.94;1787759;80;22140;-93
2022/05/26 05:56:02;;;;;;;3.00;2.37;;;;;;;19.23;83.62;100918.27;1787682;80;21029;-94
2022/05/26 05:58:29;;;;;;;3.50;3.02;;;;;;;19.25;81.15;100920.77;1788226;80;21531;-93
2022/05/26 06:00:56;;;;;;;6.30;3.05;;;;;;;19.25;80.19;100915.48;1787855;80;21077;-93
2022/05/26 06:03:23;;;;;;;5.53;3.02;;;;;;;19.25;81.60;100923.41;1788205;80;21512;-94
2022/05/26 06:05:50;;;;;;;5.95;3.08;;;;;;;19.27;81.08;100919.61;1787689;80;21118;-93
2022/05/26 06:08:17;;;;;;;3.17;2.98;;;;;;;19.29;81.74;100909.72;1788177;80;21018;-94
2022/05/26 06:10:46;;;;;;;5.25;3.22;;;;;;;19.34;82.54;100916.63;1783527;80;21077;-91
2022/05/26 06:13:16;;;;;;;4.83;3.65;;;;;;;19.41;82.61;100912.00;1774591;79;21085;-91
2022/05/26 06:15:47;;;;;;;3.98;3.27;;;;;;;19.43;80.24;100906.88;1773666;80;21014;-93
2022/05/26 06:18:16;;;;;;;3.85;3.12;;;;;;;19.44;78.89;100908.53;1774589;80;21806;-95
2022/05/26 06:20:45;;;;;;;4.07;3.47;;;;;;;19.42;77.30;100905.73;1775140;80;21003;-92
2022/05/26 06:23:12;;;;;;;6.55;3.70;;;;;;;19.39;77.02;100905.58;1774705;80;20971;-93
2022/05/26 06:25:40;;;;;;;3.83;3.27;;;;;;;19.38;78.98;100905.25;1774724;80;21665;-93
2022/05/26 06:31:04;;;;;;;3.85;3.45;;;;;;;19.45;78.26;100895.66;1767067;79;21216;-93
2022/05/26 06:39:06;;;;;;;7.15;3.70;;;;;;;19.45;76.71;100895.66;1750433;81;20995;-95
2022/05/26 06:44:22;;;;;;;7.45;3.77;;;;;;;19.61;74.47;100876.34;1772579;79;22000;-92
2022/05/26 06:46:49;;;;;;;9.15;3.80;;;;;;;19.73;76.99;100867.56;1794261;79;21044;-93
2022/05/26 06:49:19;;;;;;;3.67;3.37;;;;;;;19.90;76.83;100874.14;1790995;79;21009;-93
2022/05/26 06:51:47;;;;;;;4.70;3.67;;;;;;;20.07;74.72;100868.28;1810216;77;21041;-94
2022/05/26 06:54:14;;;;;;;7.97;4.08;;;;;;;20.22;73.05;100862.59;1807408;78;21058;-94
2022/05/26 06:56:42;;;;;;;4.30;3.22;;;;;;;20.37;71.07;100866.66;1813106;78;21120;-94
2022/05/26 06:59:09;;;;;;;4.17;3.10;;;;;;;20.46;68.34;100860.33;1814195;78;21048;-96
2022/05/26 07:01:36;;;;;;;3.47;3.17;;;;;;;20.52;60.08;100853.49;1781523;79;21515;-96
2022/05/26 07:04:03;;;;;;;4.65;3.05;;;;;;;20.58;60.33;100855.46;1813762;78;21245;-96
2022/05/26 07:06:30;;;;;;;4.33;3.33;;;;;;;20.67;60.91;100852.76;1813344;78;21014;-94
2022/05/26 07:08:57;;;;;;;5.12;3.12;;;;;;;20.74;62.74;100851.08;1806732;77;21201;-96
2022/05/26 07:11:24;;;;;;;4.80;3.15;;;;;;;20.84;64.07;100845.55;1809243;79;21030;-96
2022/05/26 07:13:53;;;;;;;6.22;3.27;;;;;;;20.98;65.58;100850.05;1804367;79;21507;-95
2022/05/26 07:16:20;;;;;;;4.50;3.15;;;;;;;21.12;63.50;100846.61;1804172;79;21080;-95
2022/05/26 07:18:50;;;;;;;6.53;3.00;;;;;;;21.24;63.84;100848.84;1804621;79;20998;-95
2022/05/26 07:21:17;;;;;;;3.98;2.95;;;;;;;21.35;60.98;100848.89;1801196;79;21149;-96
2022/05/26 07:23:45;;;;;;;9.40;3.27;;;;;;;21.43;58.54;100852.78;1804409;79;21007;-96
2022/05/26 07:26:14;;;;;;;6.42;3.45;;;;;;;21.52;56.59;100848.21;1804860;79;21007;-95
2022/05/26 07:28:42;;;;;;;2.85;2.65;;;;;;;21.61;54.84;100844.50;1805250;79;20951;-96
2022/05/26 07:31:12;;;;;;;10.03;3.25;;;;;;;21.66;53.51;100846.13;1805248;79;21037;-96
2022/05/26 07:33:40;;;;;;;9.07;3.10;;;;;;;21.70;54.00;100850.03;1805450;79;21115;-96
2022/05/26 07:41:16;;;;;;;4.53;2.80;;;;;;;21.73;50.55;100843.05;1806252;79;21429;-95
2022/05/26 07:41:17;;;;;;;3.80;2.45;;;;;;;21.75;49.93;100850.30;1760964;79;21017;-96
2022/05/26 07:43:55;;;;;;;3.70;2.95;;;;;;;21.78;50.81;100857.09;1791158;79;21068;-96
2022/05/26 07:46:24;;;;;;;3.27;2.77;;;;;;;21.85;53.13;100847.88;1807867;78;21915;-95
2022/05/26 07:48:52;;;;;;;4.45;2.75;;;;;;;21.96;52.92;100848.74;1784590;78;21062;-93
2022/05/26 07:51:21;;;;;;;8.10;3.37;;;;;;;22.01;51.85;100851.65;1790982;78;21056;-96
2022/05/26 07:53:50;;;;;;;4.72;3.15;;;;;;;22.02;52.37;100847.19;1805030;78;20991;-96
2022/05/26 07:56:20;;;;;;;2.95;2.70;;;;;;;21.96;52.37;100858.02;1802383;78;21120;-94
2022/05/26 07:58:48;;;;;;;6.10;2.67;;;;;;;21.92;51.76;100851.43;1804324;79;21072;-93
2022/05/26 08:01:15;;;;;;;4.25;2.50;;;;;;;21.90;51.14;100858.25;1803913;79;21272;-94
2022/05/26 08:03:42;;;;;;;4.72;2.20;;;;;;;21.88;49.01;100858.92;1804385;79;21630;-96
2022/05/26 08:06:09;;;;;;;4.37;2.75;;;;;;;;;;1804274;79;21007;-95
2022/05/26 08:08:37;;;;;;;6.87;2.70;;;;;;;21.99;49.26;100851.00;1804182;79;20999;-96
2022/05/26 08:11:07;;;;;;;6.22;2.65;;;;;;;22.05;49.60;100846.80;1798889;79;21105;-94
2022/05/26 08:13:37;;;;;;;4.87;2.45;;;;;;;22.12;49.95;100846.88;1783506;79;21117;-93
2022/05/26 08:16:05;;;;;;;8.23;2.35;;;;;;;22.12;45.66;100846.37;1790947;79;21018;-94
2022/05/26 08:18:35;;;;;;;3.87;2.30;;;;;;;22.09;44.37;100852.06;1794410;79;21030;-94
2022/05/26 08:21:09;;;;;;;5.97;2.42;;;;;;;22.10;43.83;100856.36;1738294;81;21062;-96
2022/05/26 08:23:38;;;;;;;5.00;2.50;;;;;;;22.11;44.18;100857.17;1735743;81;21081;-94
2022/05/26 08:26:05;;;;;;;4.50;2.27;;;;;;;22.09;44.11;100861.83;1767948;80;21153;-94
2022/05/26 08:28:35;;;;;;;6.33;2.67;;;;;;;22.04;44.69;100867.20;1751571;80;21508;-94
2022/05/26 08:31:04;;;;;;;7.33;2.90;;;;;;;21.91;43.43;100865.72;1736166;81;21611;-96
2022/05/26 08:33:32;;;;;;;4.95;2.22;;;;;;;21.74;44.26;100868.55;1726060;82;21069;-92
2022/05/26 08:36:08;;;;;;;2.30;2.10;;;;;;;21.59;45.94;100875.68;1743597;81;21146;-92
2022/05/26 08:38:38;;;;;;;3.75;2.30;;;;;;;21.49;45.42;100876.41;1767813;79;21066;-92
2022/05/26 08:41:21;;;;;;;6.08;2.55;;;;;;;21.39;47.07;100880.14;1737167;81;21049;-91
2022/05/26 08:44:05;;;;;;;4.62;1.92;;;;;;;21.29;47.49;100878.23;1745530;81;21038;-91
2022/05/26 08:46:47;;;;;;;5.92;2.42;;;;;;;21.21;48.71;100886.25;1720319;81;21516;-91
2022/05/26 08:49:39;;;;;;;7.00;2.50;;;;;;;21.11;49.62;100884.67;1763707;81;21471;-89
2022/05/26 08:52:14;;;;;;;6.25;3.10;;;;;;;21.00;50.65;100875.01;1737463;81;21545;-90
2022/05/26 08:54:58;;;;;;;5.97;2.90;;;;;;;20.88;52.41;100873.28;1735633;81;21035;-91
2022/05/26 08:57:36;;;;;;;3.15;2.40;;;;;;;20.82;53.23;100873.52;1672135;81;21077;-89
2022/05/26 09:00:05;;;;;;;3.17;2.65;;;;;;;20.76;53.56;100871.07;1753235;81;21022;-90
2022/05/26 09:02:36;;;;;;;11.18;3.02;;;;;;;20.74;54.48;100866.45;1751107;81;21179;-90
2022/05/26 09:05:18;;;;;;;11.57;3.10;;;;;;;20.70;54.65;100862.49;1751408;81;21507;-91
2022/05/26 09:14:07;;;;;;;4.60;2.70;;;;;;;20.62;55.58;100855.93;1739182;80;21327;-90
2022/05/26 09:16:41;;;;;;;10.45;2.70;;;;;;;20.57;54.77;100860.42;1754531;80;21063;-92
2022/05/26 09:19:17;;;;;;;18.55;3.12;;;;;;;20.53;49.01;100859.11;1747727;81;21101;-90
2022/05/26 09:21:48;;;;;;;9.15;2.70;;;;;;;20.50;47.49;100851.55;1754472;81;21034;-88
2022/05/26 09:24:24;;;;;;;6.72;2.27;;;;;;;20.50;46.63;100854.19;1754757;81;21019;-89
2022/05/26 09:27:01;;;;;;;5.95;2.15;;;;;;;20.49;46.40;100861.28;1753190;80;21022;-89
2022/05/26 09:29:33;;;;;;;4.35;2.62;;;;;;;20.53;47.43;100854.34;1757260;81;21122;-91
2022/05/26 09:32:03;;;;;;;6.55;2.50;;;;;;;20.54;46.95;100854.66;1755291;81;21025;-90
2022/05/26 09:34:34;;;;;;;10.85;2.67;;;;;;;20.53;47.65;100841.92;1755637;80;21085;-91
2022/05/26 09:37:07;;;;;;;4.97;2.42;;;;;;;20.47;47.96;100848.73;1710192;81;21666;-90
2022/05/26 09:39:42;;;;;;;2.47;2.25;;;;;;;20.45;48.72;100853.39;1733135;81;21542;-88
2022/05/26 09:42:20;;;;;;;4.75;2.37;;;;;;;20.44;49.84;100837.67;1755334;81;21118;-89
2022/05/26 09:44:59;;;;;;;6.53;2.52;;;;;;;20.43;50.20;100842.16;1755196;81;21590;-89
2022/05/26 09:47:41;;;;;;;4.05;2.27;;;;;;;20.43;50.46;100833.41;1755503;81;21065;-92
2022/05/26 09:50:33;;;;;;;3.50;2.17;;;;;;;20.40;51.45;100830.59;1736436;81;21018;-90
2022/05/26 09:53:05;;;;;;;3.60;2.50;;;;;;;20.40;52.75;100831.91;1720968;81;21072;-91
2022/05/26 09:55:49;;;;;;;3.72;2.47;;;;;;;20.38;51.86;100828.64;1728331;81;21363;-89
2022/05/26 09:58:37;;;;;;;2.58;2.37;;;;;;;20.33;52.40;100821.72;1756250;81;21052;-91
2022/05/26 10:01:30;;;;;;;4.40;2.52;;;;;;;20.22;53.36;100818.97;1729985;81;21042;-90
2022/05/26 10:04:21;;;;;;;3.02;2.58;;;;;;;20.12;54.05;100813.91;1755220;80;21566;-90
2022/05/26 10:07:03;;;;;;;3.52;2.40;;;;;;;20.06;54.63;100814.61;1755251;80;21590;-94
2022/05/26 10:09:36;;;;;;;;;;;;;;;20.00;55.63;100812.64;1736398;81;21358;-94
2022/05/26 10:12:24;;;;;;;2.98;2.20;;;;;;;19.96;54.69;100801.59;1701121;83;20136;-93
2022/05/26 10:15:18;;;;;;;3.15;2.25;;;;;;;19.92;53.96;100796.82;1750673;81;21026;-89
2022/05/26 10:18:05;;;;;;;4.97;2.20;;;;;;;19.89;53.48;100791.90;1721565;81;21021;-89
2022/05/26 10:21:06;;;;;;;4.00;2.50;;;;;;;19.86;53.86;100798.36;1737881;81;21135;-88
2022/05/26 10:23:48;;;;;;;31.45;23.40;;;;;;;19.84;53.07;100791.91;1716799;82;21442;-89
2022/05/26 10:26:30;;;;;;;8.30;4.87;;;;;;;19.83;52.73;100788.09;1707882;82;21008;-88
2022/05/26 10:29:33;;;;;;;4.72;3.72;;;;;;;19.85;52.99;100786.14;1696334;82;21058;-89
2022/05/26 10:32:24;;;;;;;6.67;2.72;;;;;;;19.86;53.05;100785.95;1722107;82;21558;-88
2022/05/26 10:35:16;;;;;;;4.95;2.47;;;;;;;19.85;50.91;100784.31;1713038;83;21077;-89
2022/05/26 10:38:02;;;;;;;3.45;2.47;;;;;;;19.83;51.10;100777.02;1777690;79;21871;-88
2022/05/26 10:40:44;;;;;;;4.72;2.25;;;;;;;19.82;51.58;100778.03;1740046;79;21041;-88
2022/05/26 10:43:23;;;;;;;6.30;2.62;;;;;;;19.82;52.61;100782.00;1769035;80;21086;-88
2022/05/26 10:45:52;;;;;;;3.45;2.83;;;;;;;19.79;52.79;100782.84;1766390;79;21028;-89
2022/05/26 10:48:55;;;;;;;3.00;2.72;;;;;;;19.75;51.80;100777.56;1779915;79;22018;-89
2022/05/26 10:51:31;;;;;;;5.47;3.25;;;;;;;19.70;51.57;100774.11;1754114;80;21916;-91
2022/05/26 10:54:22;;;;;;;3.70;3.10;;;;;;;19.65;52.11;100769.84;1756682;79;21073;-96
2022/05/26 10:57:05;;;;;;;4.62;3.42;;;;;;;19.62;53.75;100767.53;1727957;79;21037;-89
2022/05/26 10:59:47;;;;;;;8.28;3.77;;;;;;;19.59;54.36;100749.41;1755303;79;21163;-92
2022/05/26 11:02:38;;;;;;;5.62;2.90;;;;;;;19.58;55.69;100743.28;1727189;80;20998;-89
2022/05/26 11:05:12;;;;;;;3.08;2.77;;;;;;;19.54;57.16;100740.17;1766213;79;21245;-90
2022/05/26 11:07:50;;;;;;;8.58;2.77;;;;;;;19.52;57.85;100750.07;1770596;79;21578;-86
2022/05/26 11:10:27;;;;;;;4.30;3.00;;;;;;;19.47;60.66;100743.17;1770416;79;21026;-89
2022/05/26 11:13:06;;;;;;;6.80;3.30;;;;;;;19.40;64.24;100748.81;1787088;79;21449;-90
2022/05/26 11:18:33;;;;;;;7.05;2.83;;;;;;;19.20;79.37;100758.42;1799421;79;21173;-93
2022/05/26 11:21:02;;;;;;;3.20;2.90;;;;;;;19.09;86.32;100754.84;1803432;79;20983;-93
2022/05/26 11:23:35;;;;;;;6.10;3.45;;;;;;;18.98;92.62;100769.69;1802366;79;20979;-90
2022/05/26 11:26:07;;;;;;;3.87;3.50;;;;;;;18.83;100.00;100774.80;1794443;78;21519;-90
2022/05/26 11:28:49;;;;;;;4.10;3.65;;;;;;;18.66;100.00;100777.44;1801127;78;21881;-90
2022/05/26 11:37:23;;;;;;;4.40;3.87;;;;;;;17.84;100.00;100826.78;1796656;79;21037;-92
2022/05/26 11:40:02;;;;;;;6.42;3.30;;;;;;;17.37;100.00;100849.56;1779141;78;21611;-92
2022/05/26 11:42:41;;;;;;;5.60;4.35;;;;;;;16.95;100.00;100856.31;1805501;79;21030;-95
2022/05/26 11:45:19;;;;;;;5.53;3.70;;;;;;;16.68;100.00;100852.75;1780326;79;21650;-91
2022/05/26 11:48:03;;;;;;;4.87;3.60;;;;;;;16.53;100.00;100845.88;1801191;79;21090;-91
2022/05/26 11:50:50;;;;;;;5.97;3.62;;;;;;;16.41;100.00;100854.47;1798956;78;21050;-93
2022/05/26 11:53:35;;;;;;;5.05;3.05;;;;;;;16.29;100.00;100845.12;1802978;78;21034;-90
2022/05/26 11:56:30;;;;;;;5.08;3.10;;;;;;;16.19;100.00;100853.06;1788816;78;21057;-92
2022/05/26 11:59:27;;;;;;;4.30;2.83;;;;;;;16.09;100.00;100844.73;1797591;79;21559;-91
2022/05/26 12:02:08;;;;;;;3.05;2.80;;;;;;;16.01;100.00;100853.02;1784412;79;20995;-91
2022/05/26 12:04:40;;;;;;;3.15;2.58;;;;;;;15.93;100.00;100853.73;1794429;78;21085;-93
2022/05/26 12:07:19;;;;;;;3.93;2.70;;;;;;;15.87;100.00;100861.69;1779831;79;20989;-94
2022/05/26 12:09:57;;;;;;;3.00;2.65;;;;;;;15.83;100.00;100861.66;1778362;79;20994;-92
2022/05/26 12:12:45;;;;;;;4.83;2.95;;;;;;;15.83;100.00;100873.47;1798619;77;21243;-89
2022/05/26 12:15:21;;;;;;;2.80;2.60;;;;;;;15.82;100.00;100874.41;1802613;79;20991;-89
2022/05/26 12:17:57;;;;;;;3.85;3.55;;;;;;;15.75;100.00;100864.95;1765460;79;21134;-93
2022/05/26 12:20:29;;;;;;;5.62;5.12;;;;;;;15.68;100.00;100870.44;1780433;79;21018;-93
2022/05/26 12:23:07;;;;;;;7.12;5.60;;;;;;;15.57;100.00;100862.75;1799001;78;21620;-90
2022/05/26 12:25:42;;;;;;;5.58;4.95;;;;;;;15.50;100.00;100866.41;1801498;78;21016;-95
2022/05/26 12:28:28;;;;;;;8.15;5.35;;;;;;;15.46;100.00;100878.98;1799992;79;21027;-95
2022/05/26 12:31:02;;;;;;;5.10;4.33;;;;;;;15.41;100.00;100873.34;1797212;78;21027;-92
2022/05/26 12:33:56;;;;;;;4.97;4.08;;;;;;;15.38;100.00;100869.68;1782159;79;21002;-92
2022/05/26 12:36:43;;;;;;;3.87;3.58;;;;;;;15.34;100.00;100860.45;1783102;79;21486;-94